createdAt,value
2018-01-22T00:02:57.434Z,2.63
2018-01-22T00:05:59.378Z,2.67
2018-01-22T00:09:01.312Z,2.50
2018-01-22T00:12:03.227Z,2.72
2018-01-22T00:15:05.164Z,2.37
2018-01-22T00:18:07.109Z,2.42
2018-01-22T00:21:09.035Z,2.63
2018-01-22T00:24:10.968Z,2.30
2018-01-22T00:27:12.882Z,2.70
2018-01-22T00:30:14.827Z,2.83
2018-01-22T00:33:16.742Z,2.50
2018-01-22T00:36:18.683Z,2.63
2018-01-22T00:39:20.606Z,2.50
2018-01-22T00:42:22.567Z,2.50
2018-01-22T00:45:24.509Z,2.37
2018-01-22T00:48:26.410Z,2.43
2018-01-22T00:51:28.311Z,2.40
2018-01-22T00:54:30.187Z,2.67
2018-01-22T00:57:32.139Z,2.43
2018-01-22T01:00:34.084Z,2.23
2018-01-22T01:03:36.027Z,2.43
2018-01-22T01:06:37.996Z,2.23
2018-01-22T01:09:39.823Z,2.55
2018-01-22T01:12:41.739Z,2.10
2018-01-22T01:15:43.704Z,2.50
2018-01-22T01:18:45.843Z,2.50
2018-01-22T01:21:47.782Z,2.20
2018-01-22T01:24:49.707Z,2.20
2018-01-22T01:27:51.644Z,2.40
2018-01-22T01:30:53.559Z,2.67
2018-01-22T01:33:55.482Z,2.27
2018-01-22T01:36:57.435Z,2.53
2018-01-22T01:39:59.346Z,2.30
2018-01-22T01:46:22.262Z,2.30
2018-01-22T01:49:24.216Z,2.57
2018-01-22T01:52:26.145Z,2.15
2018-01-22T01:55:28.058Z,2.23
2018-01-22T01:58:30.009Z,2.08
2018-01-22T02:01:31.956Z,2.20
2018-01-22T02:04:33.864Z,2.50
2018-01-22T02:07:35.785Z,2.00
2018-01-22T02:10:37.726Z,2.27
2018-01-22T02:13:39.887Z,2.17
2018-01-22T02:16:41.875Z,2.40
2018-01-22T02:19:43.811Z,2.20
2018-01-22T02:22:51.783Z,1.80
2018-01-22T02:29:17.184Z,2.33
2018-01-22T02:32:19.062Z,2.00
2018-01-22T02:35:20.957Z,1.97
2018-01-22T02:38:22.841Z,2.20
2018-01-22T02:41:24.767Z,2.10
2018-01-22T02:44:26.688Z,2.23
2018-01-22T02:47:28.607Z,1.67
2018-01-22T02:50:30.534Z,2.00
2018-01-22T02:53:32.579Z,1.80
2018-01-22T02:56:34.475Z,1.85
2018-01-22T02:59:36.367Z,2.03
2018-01-22T03:02:38.263Z,1.90
2018-01-22T03:05:40.166Z,1.93
2018-01-22T03:08:42.115Z,1.90
2018-01-22T03:11:44.026Z,2.08
2018-01-22T03:14:45.919Z,1.87
2018-01-22T03:17:47.827Z,1.73
2018-01-22T03:20:49.723Z,1.67
2018-01-22T03:23:51.689Z,1.98
2018-01-22T03:26:53.671Z,1.93
2018-01-22T03:29:55.638Z,1.67
2018-01-22T03:32:57.535Z,2.00
2018-01-22T03:35:59.432Z,2.00
2018-01-22T03:39:01.338Z,1.70
2018-01-22T03:42:03.231Z,1.70
2018-01-22T03:45:05.126Z,1.40
2018-01-22T03:48:07.260Z,2.07
2018-01-22T03:51:09.142Z,1.60
2018-01-22T03:54:11.031Z,1.87
2018-01-22T03:57:12.910Z,1.57
2018-01-22T04:00:14.911Z,1.67
2018-01-22T04:03:16.948Z,1.82
2018-01-22T04:06:18.906Z,1.70
2018-01-22T04:09:20.786Z,1.70
2018-01-22T04:12:22.691Z,1.50
2018-01-22T04:15:24.591Z,1.43
2018-01-22T04:18:26.487Z,1.47
2018-01-22T04:21:28.399Z,1.47
2018-01-22T04:24:30.323Z,1.50
2018-01-22T04:27:32.211Z,1.50
2018-01-22T04:30:34.123Z,1.60
2018-01-22T04:33:36.011Z,1.40
2018-01-22T04:36:37.924Z,1.30
2018-01-22T04:39:39.815Z,1.40
2018-01-22T04:42:41.711Z,1.63
2018-01-22T04:45:43.594Z,1.43
2018-01-22T04:48:45.538Z,1.20
2018-01-22T04:51:47.438Z,1.35
2018-01-22T04:54:49.323Z,1.20
2018-01-22T04:57:51.235Z,1.40
2018-01-22T05:00:53.131Z,1.30
2018-01-22T05:03:55.035Z,1.30
2018-01-22T05:06:57.008Z,1.30
2018-01-22T05:09:58.890Z,1.30
2018-01-22T05:13:00.815Z,1.30
2018-01-22T05:16:02.795Z,1.37
2018-01-22T05:19:04.708Z,1.10
2018-01-22T05:22:06.603Z,1.00
2018-01-22T05:25:08.499Z,1.07
2018-01-22T05:28:10.404Z,1.30
2018-01-22T05:31:12.304Z,1.10
2018-01-22T05:34:14.287Z,1.13
2018-01-22T05:37:16.214Z,1.10
2018-01-22T05:40:18.091Z,1.00
2018-01-22T05:43:19.984Z,1.10
2018-01-22T05:46:21.926Z,1.00
2018-01-22T05:49:23.819Z,1.20
2018-01-22T05:52:25.690Z,1.20
2018-01-22T05:55:27.568Z,1.00
2018-01-22T05:58:29.494Z,1.13
2018-01-22T06:01:31.399Z,1.10
2018-01-22T06:04:33.287Z,1.20
2018-01-22T06:07:35.196Z,1.00
2018-01-22T06:10:37.195Z,1.17
2018-01-22T06:13:39.078Z,1.10
2018-01-22T06:16:40.967Z,1.13
2018-01-22T06:19:42.940Z,0.90
2018-01-22T06:22:44.870Z,0.90
2018-01-22T06:25:46.787Z,0.90
2018-01-22T06:28:48.678Z,1.10
2018-01-22T06:31:50.569Z,0.80
2018-01-22T06:34:52.511Z,0.93
2018-01-22T06:37:54.383Z,0.80
2018-01-22T06:40:56.262Z,1.10
2018-01-22T06:43:58.142Z,1.17
2018-01-22T06:47:00.032Z,1.00
2018-01-22T06:50:01.912Z,0.70
2018-01-22T06:53:04.823Z,0.90
2018-01-22T06:56:06.698Z,0.70
2018-01-22T06:59:08.576Z,1.00
2018-01-22T07:02:10.461Z,0.90
2018-01-22T07:05:12.346Z,0.90
2018-01-22T07:08:14.234Z,0.90
2018-01-22T07:11:16.106Z,0.90
2018-01-22T07:14:17.986Z,0.90
2018-01-22T07:17:19.883Z,0.93
2018-01-22T07:20:21.759Z,1.07
2018-01-22T07:23:23.649Z,1.00
2018-01-22T07:26:25.539Z,0.90
2018-01-22T07:29:27.429Z,0.90
2018-01-22T07:32:29.307Z,0.77
2018-01-22T07:35:31.209Z,0.80
2018-01-22T07:38:33.082Z,0.83
2018-01-22T07:41:34.953Z,0.80
2018-01-22T07:44:36.993Z,0.90
2018-01-22T07:47:38.866Z,0.70
2018-01-22T07:50:40.788Z,0.90
2018-01-22T07:53:42.647Z,0.90
2018-01-22T07:56:44.537Z,0.80
2018-01-22T07:59:46.418Z,0.80
2018-01-22T08:02:48.306Z,0.90
2018-01-22T08:05:50.192Z,0.80
2018-01-22T08:08:52.079Z,0.80
2018-01-22T08:11:53.968Z,0.70
2018-01-22T08:14:55.844Z,0.80
2018-01-22T08:17:57.755Z,0.80
2018-01-22T08:20:59.643Z,0.77
2018-01-22T08:24:01.527Z,1.00
2018-01-22T08:27:03.599Z,0.70
2018-01-22T08:30:05.475Z,0.73
2018-01-22T08:33:07.354Z,0.90
2018-01-22T08:36:09.240Z,0.90
2018-01-22T08:39:11.120Z,0.80
2018-01-22T08:42:12.994Z,0.60
2018-01-22T08:45:14.887Z,0.90
2018-01-22T08:48:17.218Z,0.83
2018-01-22T08:51:19.218Z,0.80
2018-01-22T08:54:21.091Z,0.90
2018-01-22T08:57:22.975Z,0.70
2018-01-22T09:00:24.857Z,0.70
2018-01-22T09:03:26.735Z,0.93
2018-01-22T09:06:28.619Z,2.25
2018-01-22T09:09:30.512Z,2.30
2018-01-22T09:12:32.395Z,2.08
2018-01-22T09:15:34.270Z,2.17
2018-01-22T09:18:36.148Z,1.57
2018-01-22T09:21:38.035Z,1.57
2018-01-22T09:24:39.915Z,1.33
2018-01-22T09:27:41.807Z,1.17
2018-01-22T09:30:43.673Z,1.20
2018-01-22T09:33:45.561Z,1.30
2018-01-22T09:36:47.655Z,1.10
2018-01-22T09:39:49.518Z,1.10
2018-01-22T09:42:51.391Z,1.20
2018-01-22T09:45:53.275Z,1.30
2018-01-22T09:48:55.174Z,1.00
2018-01-22T09:51:57.062Z,1.70
2018-01-22T09:54:58.989Z,1.27
2018-01-22T09:58:00.859Z,1.20
2018-01-22T10:01:02.751Z,1.20
2018-01-22T10:04:04.642Z,1.00
2018-01-22T10:07:06.523Z,1.10
2018-01-22T10:10:08.404Z,1.13
2018-01-22T10:13:10.294Z,1.20
2018-01-22T10:16:12.157Z,1.07
2018-01-22T10:19:14.043Z,1.20
2018-01-22T10:22:15.939Z,1.20
2018-01-22T10:25:17.802Z,1.07
2018-01-22T10:28:19.720Z,1.10
2018-01-22T10:31:21.601Z,1.30
2018-01-22T10:34:23.494Z,1.17
2018-01-22T10:37:25.876Z,1.37
2018-01-22T10:40:27.754Z,1.30
2018-01-22T10:43:29.636Z,1.13
2018-01-22T10:46:31.526Z,1.40
2018-01-22T10:49:33.407Z,1.40
2018-01-22T10:52:35.292Z,1.33
2018-01-22T10:55:37.166Z,1.33
2018-01-22T10:58:39.053Z,1.03
2018-01-22T11:01:40.919Z,1.20
2018-01-22T11:04:42.796Z,1.20
2018-01-22T11:07:44.664Z,1.40
2018-01-22T11:10:46.542Z,1.37
2018-01-22T11:13:48.427Z,1.17
2018-01-22T11:16:50.311Z,1.20
2018-01-22T11:19:52.195Z,1.30
2018-01-22T11:22:54.071Z,1.40
2018-01-22T11:25:55.948Z,1.23
2018-01-22T11:28:57.843Z,1.40
2018-01-22T11:31:59.740Z,1.20
2018-01-22T11:35:01.619Z,1.00
2018-01-22T11:38:03.494Z,1.10
2018-01-22T11:41:05.378Z,1.30
2018-01-22T11:44:07.252Z,1.20
2018-01-22T11:47:09.123Z,1.13
2018-01-22T11:50:11.023Z,1.17
2018-01-22T11:53:12.902Z,1.00
2018-01-22T11:56:14.783Z,1.20
2018-01-22T11:59:16.671Z,1.50
2018-01-22T12:02:18.544Z,1.40
2018-01-22T12:05:20.415Z,1.47
2018-01-22T12:08:22.303Z,1.30
2018-01-22T12:11:24.183Z,1.20
2018-01-22T12:14:26.063Z,1.40
2018-01-22T12:17:27.951Z,1.40
2018-01-22T12:20:30.130Z,1.40
2018-01-22T12:23:32.299Z,1.30
2018-01-22T12:26:34.173Z,1.27
2018-01-22T12:29:36.047Z,1.13
2018-01-22T12:32:37.946Z,1.30
2018-01-22T12:35:39.823Z,1.77
2018-01-22T12:38:41.699Z,1.33
2018-01-22T12:41:43.630Z,1.30
2018-01-22T12:44:45.521Z,1.50
2018-01-22T12:47:47.402Z,1.50
2018-01-22T12:50:50.376Z,1.67
2018-01-22T12:53:52.247Z,1.40
2018-01-22T12:56:54.133Z,1.40
2018-01-22T12:59:55.998Z,1.37
2018-01-22T13:02:57.891Z,1.50
2018-01-22T13:05:59.777Z,1.60
2018-01-22T13:09:01.657Z,1.70
2018-01-22T13:12:03.535Z,1.60
2018-01-22T13:15:05.478Z,1.30
2018-01-22T13:18:07.357Z,1.57
2018-01-22T13:21:09.252Z,1.57
2018-01-22T13:24:11.168Z,1.60
2018-01-22T13:27:13.042Z,1.83
2018-01-22T13:30:15.171Z,1.60
2018-01-22T13:33:17.279Z,1.47
2018-01-22T13:36:20.243Z,1.60
2018-01-22T13:39:22.120Z,1.80
2018-01-22T13:42:23.990Z,1.57
2018-01-22T13:45:25.871Z,1.50
2018-01-22T13:48:27.751Z,1.50
2018-01-22T13:51:29.631Z,1.60
2018-01-22T13:54:31.598Z,1.60
2018-01-22T13:57:33.468Z,2.10
2018-01-22T14:00:35.762Z,1.77
2018-01-22T14:03:37.585Z,1.73
2018-01-22T14:06:39.475Z,1.50
2018-01-22T14:09:41.358Z,1.70
2018-01-22T14:12:43.262Z,1.80
2018-01-22T14:15:45.215Z,1.83
2018-01-22T14:18:47.095Z,2.10
2018-01-22T14:21:48.988Z,1.80
2018-01-22T14:24:50.857Z,1.70
2018-01-22T14:27:52.743Z,1.87
2018-01-22T14:30:54.623Z,1.90
2018-01-22T14:33:56.511Z,1.83
2018-01-22T14:36:58.405Z,1.80
2018-01-22T14:40:00.276Z,1.87
2018-01-22T14:43:02.148Z,1.80
2018-01-22T14:46:04.026Z,1.63
2018-01-22T14:49:05.914Z,1.67
2018-01-22T14:52:07.812Z,1.60
2018-01-22T14:55:09.687Z,2.10
2018-01-22T14:58:11.572Z,1.70
2018-01-22T15:01:13.454Z,1.80
2018-01-22T15:04:15.330Z,1.87
2018-01-22T15:07:17.220Z,1.80
2018-01-22T15:10:19.086Z,1.90
2018-01-22T15:13:20.963Z,2.20
2018-01-22T15:16:22.856Z,2.03
2018-01-22T15:19:24.738Z,1.83
2018-01-22T15:22:26.642Z,2.10
2018-01-22T15:25:28.523Z,2.00
2018-01-22T15:28:30.438Z,2.00
2018-01-22T15:31:32.302Z,2.27
2018-01-22T15:34:34.194Z,2.00
2018-01-22T15:37:36.066Z,1.83
2018-01-22T15:40:37.955Z,2.10
2018-01-22T15:43:39.838Z,1.67
2018-01-22T15:46:41.719Z,1.87
2018-01-22T15:49:43.647Z,2.10
2018-01-22T15:52:45.535Z,2.07
2018-01-22T15:55:47.539Z,1.77
2018-01-22T15:58:50.291Z,2.17
2018-01-22T16:01:52.265Z,2.20
2018-01-22T16:04:54.143Z,2.10
2018-01-22T16:07:56.013Z,2.33
2018-01-22T16:10:57.903Z,2.10
2018-01-22T16:13:59.792Z,2.50
2018-01-22T16:17:01.675Z,2.20
2018-01-22T16:20:03.547Z,2.70
2018-01-22T16:23:05.423Z,2.72
2018-01-22T16:26:07.319Z,2.60
2018-01-22T16:29:09.196Z,3.00
2018-01-22T16:32:11.075Z,2.50
2018-01-22T16:35:12.964Z,2.60
2018-01-22T16:38:14.839Z,2.50
2018-01-22T16:41:16.723Z,2.37
2018-01-22T16:44:18.599Z,2.70
2018-01-22T16:47:24.934Z,2.80
2018-01-22T16:50:26.806Z,2.30
2018-01-22T16:53:28.695Z,2.80
2018-01-22T16:56:30.767Z,2.57
2018-01-22T16:59:32.771Z,2.60
2018-01-22T17:02:34.654Z,2.60
2018-01-22T17:05:36.527Z,2.90
2018-01-22T17:08:38.430Z,2.63
2018-01-22T17:11:40.323Z,2.50
2018-01-22T17:14:42.200Z,2.60
2018-01-22T17:17:44.079Z,2.60
2018-01-22T17:20:45.987Z,2.73
2018-01-22T17:23:47.873Z,2.60
2018-01-22T17:26:49.764Z,2.70
2018-01-22T17:29:51.637Z,2.93
2018-01-22T17:32:53.527Z,2.40
2018-01-22T17:35:55.407Z,2.50
2018-01-22T17:38:57.286Z,2.30
2018-01-22T17:41:59.159Z,2.70
2018-01-22T17:45:01.043Z,2.47
2018-01-22T17:48:02.934Z,2.80
2018-01-22T17:51:04.802Z,2.47
2018-01-22T17:54:06.682Z,2.80
2018-01-22T17:57:08.575Z,2.47
2018-01-22T18:00:10.446Z,2.40
2018-01-22T18:03:12.340Z,2.20
2018-01-22T18:06:14.206Z,2.57
2018-01-22T18:09:16.083Z,2.87
2018-01-22T18:12:17.979Z,2.57
2018-01-22T18:15:19.867Z,2.80
2018-01-22T18:18:21.739Z,2.53
2018-01-22T18:21:23.688Z,2.90
2018-01-22T18:24:25.583Z,2.37
2018-01-22T18:27:27.458Z,2.43
2018-01-22T18:30:29.347Z,2.10
2018-01-22T18:33:31.338Z,2.13
2018-01-22T18:36:33.208Z,2.50
2018-01-22T18:39:35.096Z,2.70
2018-01-22T18:42:36.984Z,2.80
2018-01-22T18:45:39.102Z,2.47
2018-01-22T18:48:41.024Z,2.30
2018-01-22T18:51:43.850Z,1.90
2018-01-22T18:54:45.835Z,2.37
2018-01-22T18:57:47.823Z,2.27
2018-01-22T19:00:49.735Z,2.50
2018-01-22T19:03:51.735Z,2.40
2018-01-22T19:06:53.927Z,2.07
2018-01-22T19:09:55.847Z,2.17
2018-01-22T19:12:57.864Z,2.27
2018-01-22T19:15:59.744Z,2.23
2018-01-22T19:19:01.734Z,2.40
2018-01-22T19:22:03.730Z,2.37
2018-01-22T19:25:05.652Z,2.20
2018-01-22T19:28:07.616Z,2.30
2018-01-22T19:31:09.527Z,2.00
2018-01-22T19:34:11.431Z,2.10
2018-01-22T19:37:13.364Z,2.00
2018-01-22T19:40:16.391Z,2.10
2018-01-22T19:43:18.355Z,2.30
2018-01-22T19:46:20.279Z,2.30
2018-01-22T19:49:22.171Z,2.17
2018-01-22T20:01:51.172Z,2.10
2018-01-22T20:04:53.139Z,2.07
2018-01-22T20:07:55.073Z,2.30
2018-01-22T20:10:57.059Z,2.30
2018-01-22T20:13:58.954Z,2.30
2018-01-22T20:17:00.952Z,2.60
2018-01-22T20:20:02.861Z,2.73
2018-01-22T20:23:05.091Z,2.40
2018-01-22T20:26:06.967Z,2.47
2018-01-22T20:29:08.839Z,2.67
2018-01-22T20:32:10.710Z,2.20
2018-01-22T20:35:12.592Z,2.40
2018-01-22T20:38:14.478Z,2.47
2018-01-22T20:41:16.359Z,2.50
2018-01-22T20:44:18.234Z,2.37
2018-01-22T20:47:20.102Z,2.70
2018-01-22T20:50:21.987Z,2.20
2018-01-22T20:53:23.880Z,2.20
2018-01-22T20:56:25.824Z,2.27
2018-01-22T20:59:27.739Z,2.17
2018-01-22T21:02:29.614Z,2.40
2018-01-22T21:05:31.519Z,2.50
2018-01-22T21:08:33.398Z,2.03
2018-01-22T21:11:35.314Z,2.30
2018-01-22T21:14:37.206Z,2.47
2018-01-22T21:17:39.089Z,2.20
2018-01-22T21:20:40.979Z,2.10
2018-01-22T21:23:42.856Z,1.93
2018-01-22T21:26:44.743Z,2.20
2018-01-22T21:29:46.683Z,2.60
2018-01-22T21:32:48.574Z,2.27
2018-01-22T21:35:50.477Z,2.10
2018-01-22T21:38:52.379Z,2.20
2018-01-22T21:41:54.309Z,2.47
2018-01-22T21:44:56.294Z,2.53
2018-01-22T21:47:58.186Z,2.30
2018-01-22T21:51:00.110Z,2.30
2018-01-22T21:54:01.988Z,1.97
2018-01-22T21:57:04.275Z,2.30
2018-01-22T22:00:06.171Z,2.20
2018-01-22T22:03:08.050Z,2.33
2018-01-22T22:06:09.927Z,2.60
2018-01-22T22:09:12.322Z,2.00
2018-01-22T22:12:14.180Z,2.07
2018-01-22T22:15:16.060Z,2.00
2018-01-22T22:18:17.934Z,2.30
2018-01-22T22:21:19.818Z,1.90
2018-01-22T22:24:21.703Z,2.10
2018-01-22T22:27:24.722Z,2.00
2018-01-22T22:30:26.676Z,2.00
2018-01-22T22:33:28.715Z,1.83
2018-01-22T22:36:30.696Z,1.80
2018-01-22T22:39:32.645Z,2.00
2018-01-22T22:42:34.498Z,2.10
2018-01-22T22:45:36.379Z,2.17
2018-01-22T22:48:38.248Z,1.90
2018-01-22T22:51:40.123Z,1.70
2018-01-22T22:54:41.994Z,1.87
2018-01-22T22:57:43.878Z,1.80
2018-01-22T23:00:45.759Z,1.80
2018-01-22T23:03:47.656Z,1.80
2018-01-22T23:06:49.541Z,1.63
2018-01-22T23:09:51.412Z,1.97
2018-01-22T23:12:53.286Z,1.80
2018-01-22T23:15:55.159Z,2.00
2018-01-22T23:18:57.055Z,1.73
2018-01-22T23:21:58.929Z,2.10
2018-01-22T23:25:00.799Z,1.80
2018-01-22T23:28:02.666Z,1.60
2018-01-22T23:31:04.543Z,1.90
2018-01-22T23:34:06.415Z,1.77
2018-01-22T23:37:08.287Z,1.70
2018-01-22T23:40:10.150Z,1.80
2018-01-22T23:43:12.040Z,1.80
2018-01-22T23:46:13.926Z,1.97
2018-01-22T23:49:15.795Z,1.80
2018-01-22T23:52:17.680Z,1.63
2018-01-22T23:55:19.848Z,1.73
2018-01-22T23:58:21.719Z,1.77
